Terminal Aerodrome Forecast
Issued by NWS

Home | Current Version | Previous Version | Text Only | Print | Product List | Glossary On
Versions: 1 2 3 4 5 6 7 8 9 10 11 12 13
413
FTUS41 KLWX 071720
TAFMTN
TAF
KMTN 071720Z 0718/0818 30008G18KT P6SM OVC025
     FM072200 31008KT P6SM FEW200
     FM080200 32004KT P6SM FEW200
     FM081500 27006KT P6SM OVC030=

USA.gov is the U.S. government's official web portal to all federal, state and local government web resources and services.